Time;durP1;ratioP1;P1;durP2;ratioP2;P2;SDS_P1;SDS_P2;PMS_P1;PMS_P2;Temp;Humidity;BMP_temperature;BMP_pressure;BME280_temperature;BME280_humidity;BME280_pressure;Samples;Min_cycle;Max_cycle;Signal;HPM_P1;HPM_P2
2023/03/08 00:02:18;;;;;;;423.10;152.00;;;;;;;2.41;nan;97182.19;5010071;28;20065;-63
2023/03/08 00:04:44;;;;;;;419.10;146.13;;;;;;;2.33;nan;97174.69;5009513;28;20056;-64
2023/03/08 00:07:10;;;;;;;417.67;143.87;;;;;;;2.35;nan;97184.78;5008936;28;20110;-64
2023/03/08 00:09:37;;;;;;;417.67;143.43;;;;;;;2.44;nan;97204.91;5009897;28;20272;-62
2023/03/08 00:12:02;;;;;;;419.37;146.53;;;;;;;2.41;nan;97198.22;5011389;28;20041;-63
2023/03/08 00:14:28;;;;;;;417.47;144.87;;;;;;;2.46;nan;97201.50;5011789;28;21018;-63
2023/03/08 00:16:53;;;;;;;419.73;147.90;;;;;;;2.53;nan;97200.59;5011492;28;20045;-63
2023/03/08 00:19:19;;;;;;;424.03;147.60;;;;;;;2.53;nan;97204.81;5010826;28;20050;-63
2023/03/08 00:21:45;;;;;;;420.83;145.20;;;;;;;2.59;nan;97218.22;5009813;28;20045;-63
2023/03/08 00:24:11;;;;;;;424.23;149.27;;;;;;;2.58;nan;97218.28;5015450;28;20119;-63
2023/03/08 00:26:37;;;;;;;425.93;152.67;;;;;;;2.57;nan;97214.06;5010266;28;20754;-62
2023/03/08 00:29:03;;;;;;;427.40;147.00;;;;;;;2.51;nan;97204.81;5010565;28;20292;-64
2023/03/08 00:31:29;;;;;;;427.63;149.73;;;;;;;2.50;nan;97222.56;5010342;28;20096;-64
2023/03/08 00:33:55;;;;;;;428.57;153.87;;;;;;;2.52;nan;97230.97;5009687;28;20053;-63
2023/03/08 00:36:21;;;;;;;427.00;157.20;;;;;;;2.47;nan;97215.84;5009863;28;20303;-63
2023/03/08 00:38:49;;;;;;;428.70;160.80;;;;;;;2.38;nan;97202.47;5006044;28;20133;-63
2023/03/08 00:41:16;;;;;;;421.70;152.80;;;;;;;2.58;nan;97226.69;5005784;28;20296;-63
2023/03/08 00:43:42;;;;;;;419.50;145.77;;;;;;;2.45;nan;97221.78;5010138;28;20282;-63
2023/03/08 00:46:08;;;;;;;418.90;148.23;;;;;;;2.59;nan;97227.53;5007951;28;20375;-64
2023/03/08 00:48:34;;;;;;;417.63;145.90;;;;;;;2.46;nan;97205.75;5010230;28;20316;-62
2023/03/08 00:51:00;;;;;;;418.37;149.17;;;;;;;2.46;nan;97216.69;5008937;28;20284;-63
2023/03/08 00:53:26;;;;;;;422.40;149.33;;;;;;;2.53;nan;97228.44;5009480;28;20053;-63
2023/03/08 00:55:54;;;;;;;422.67;153.87;;;;;;;2.40;nan;97216.75;5007683;28;20271;-63
2023/03/08 00:58:21;;;;;;;424.30;154.47;;;;;;;2.38;nan;97223.50;5023210;28;20046;-62
2023/03/08 01:00:47;;;;;;;427.60;152.87;;;;;;;2.47;nan;97233.53;5008088;28;20388;-62
2023/03/08 01:03:16;;;;;;;429.33;158.00;;;;;;;2.52;nan;97246.97;5007634;28;20297;-64
2023/03/08 01:05:45;;;;;;;421.50;149.40;;;;;;;2.70;nan;97235.84;5008422;28;20483;-62
2023/03/08 01:08:11;;;;;;;419.17;152.07;;;;;;;3.20;nan;97245.38;5009673;28;20292;-62
2023/03/08 01:10:37;;;;;;;424.57;154.17;;;;;;;3.39;nan;97234.19;5006738;28;20785;-62
2023/03/08 01:13:04;;;;;;;421.30;155.50;;;;;;;4.15;nan;97222.91;5009232;28;20073;-62
2023/03/08 01:15:35;;;;;;;422.73;160.97;;;;;;;4.92;nan;97233.38;5006184;28;20044;-62
2023/03/08 01:18:04;;;;;;;424.10;162.73;;;;;;;5.09;nan;97210.19;5013518;28;20566;-64
2023/03/08 01:20:29;;;;;;;428.70;165.70;;;;;;;5.28;nan;97217.38;5006466;28;20308;-63
2023/03/08 01:22:55;;;;;;;425.93;166.23;;;;;;;5.44;nan;97218.72;5005162;28;20800;-64
2023/03/08 01:25:21;;;;;;;427.67;168.73;;;;;;;5.48;nan;97212.72;5009694;28;20556;-63
2023/03/08 01:27:49;;;;;;;431.53;178.87;;;;;;;5.63;nan;97214.09;5006050;28;20663;-63
2023/03/08 01:30:15;;;;;;;433.83;180.23;;;;;;;5.55;nan;97210.03;4990368;28;20395;-61
2023/03/08 01:32:41;;;;;;;429.47;178.33;;;;;;;5.59;nan;97211.66;5007628;28;20787;-63
2023/03/08 01:35:07;;;;;;;429.47;184.80;;;;;;;5.62;nan;97221.75;5009743;28;20516;-63
2023/03/08 01:37:33;;;;;;;430.33;178.83;;;;;;;5.54;nan;97221.91;5009600;28;20045;-63
2023/03/08 01:39:59;;;;;;;431.67;182.90;;;;;;;5.37;nan;97203.66;5017033;28;20299;-63
2023/03/08 01:42:26;;;;;;;447.17;202.50;;;;;;;5.42;nan;97230.66;5008371;28;20731;-63
2023/03/08 01:44:52;;;;;;;431.47;182.40;;;;;;;5.22;nan;97222.56;5016668;28;20935;-63
2023/03/08 01:47:21;;;;;;;435.63;188.53;;;;;;;4.95;nan;97224.00;5008484;28;20304;-63
2023/03/08 01:50:11;;;;;;;435.10;187.03;;;;;;;4.68;nan;97228.72;5023394;28;20285;-63
2023/03/08 01:52:54;;;;;;;435.20;185.00;;;;;;;4.68;nan;97261.72;5009629;28;20288;-63
2023/03/08 01:55:20;;;;;;;432.93;183.43;;;;;;;4.38;nan;97241.09;5009616;28;20272;-64
2023/03/08 01:57:53;;;;;;;432.70;182.27;;;;;;;4.21;nan;97263.38;5004670;28;20297;-63
2023/03/08 02:00:24;;;;;;;432.37;180.03;;;;;;;3.98;nan;97235.00;5006356;28;20285;-62
2023/03/08 02:02:54;;;;;;;433.27;180.27;;;;;;;3.98;nan;97247.69;5020654;28;20296;-62
2023/03/08 02:05:21;;;;;;;436.10;182.67;;;;;;;3.77;nan;97213.38;5004807;28;20296;-62
2023/03/08 02:07:49;;;;;;;437.90;184.77;;;;;;;3.97;nan;97246.00;4994014;28;20300;-63
2023/03/08 02:10:17;;;;;;;429.80;180.63;;;;;;;3.95;nan;97247.72;5015698;28;20339;-64
2023/03/08 02:12:44;;;;;;;433.27;175.93;;;;;;;3.83;nan;97245.38;5007272;28;20049;-63
2023/03/08 02:15:13;;;;;;;427.00;170.23;;;;;;;3.56;nan;97211.16;5008226;28;20291;-64
2023/03/08 02:17:42;;;;;;;428.77;167.83;;;;;;;3.64;nan;97240.59;5007527;28;20295;-63
2023/03/08 02:20:19;;;;;;;425.53;164.23;;;;;;;3.58;nan;97248.25;5007787;28;20393;-62
2023/03/08 02:22:46;;;;;;;430.33;169.93;;;;;;;3.52;nan;97250.88;5007001;28;20292;-63
2023/03/08 02:25:20;;;;;;;426.33;170.53;;;;;;;3.48;nan;97256.81;5008633;28;20269;-64
2023/03/08 02:27:48;;;;;;;425.23;168.90;;;;;;;3.45;nan;97249.28;5008011;28;20335;-63
2023/03/08 02:30:21;;;;;;;424.60;164.07;;;;;;;3.47;nan;97255.19;5015876;28;20729;-63
2023/03/08 02:32:47;;;;;;;431.03;167.83;;;;;;;3.48;nan;97258.56;5007267;28;20371;-63
2023/03/08 02:35:12;;;;;;;427.13;163.33;;;;;;;3.45;nan;97239.16;5007225;28;20375;-60
2023/03/08 02:37:39;;;;;;;424.10;165.70;;;;;;;3.59;nan;97256.69;5008920;28;20415;-63
2023/03/08 02:40:05;;;;;;;425.43;164.47;;;;;;;3.57;nan;97238.97;5007100;28;20628;-63
2023/03/08 02:42:31;;;;;;;425.73;165.30;;;;;;;3.68;nan;97242.22;5005195;28;20042;-63
2023/03/08 02:44:56;;;;;;;421.67;160.93;;;;;;;4.30;nan;97270.84;5003885;28;20289;-63
2023/03/08 02:47:22;;;;;;;424.80;164.60;;;;;;;4.31;nan;97266.59;5006893;28;20507;-65
2023/03/08 02:49:48;;;;;;;426.90;171.50;;;;;;;4.38;nan;97270.69;5004771;28;20590;-63
2023/03/08 02:52:13;;;;;;;424.47;161.27;;;;;;;4.91;nan;97278.25;5005267;28;20128;-62
2023/03/08 02:54:41;;;;;;;425.23;162.70;;;;;;;5.17;nan;97272.66;5004758;28;20132;-63
2023/03/08 02:57:06;;;;;;;421.27;166.77;;;;;;;5.30;nan;97280.88;5004450;28;20299;-63
2023/03/08 02:59:34;;;;;;;423.67;168.20;;;;;;;5.53;nan;97279.53;5006754;28;20082;-62
2023/03/08 03:02:01;;;;;;;425.60;175.80;;;;;;;5.43;nan;97247.53;5006481;28;20326;-63
2023/03/08 03:04:31;;;;;;;423.63;172.60;;;;;;;5.64;nan;97283.56;5003341;28;20292;-62
2023/03/08 03:06:58;;;;;;;425.07;171.30;;;;;;;5.43;nan;97265.34;5007164;28;20053;-63
2023/03/08 03:09:25;;;;;;;427.90;180.37;;;;;;;5.33;nan;97276.56;5004626;28;20296;-64
2023/03/08 03:11:51;;;;;;;426.63;174.23;;;;;;;5.29;nan;97295.28;5007970;28;20277;-63
2023/03/08 03:14:17;;;;;;;425.47;172.93;;;;;;;5.09;nan;97296.53;5023608;28;20812;-63
2023/03/08 03:16:44;;;;;;;429.80;181.57;;;;;;;5.18;nan;97307.34;5018064;28;20662;-63
2023/03/08 03:19:11;;;;;;;426.90;179.77;;;;;;;5.22;nan;97283.56;5006420;28;20625;-63
2023/03/08 03:21:39;;;;;;;427.43;179.77;;;;;;;5.07;nan;97289.78;5008902;28;20307;-62
2023/03/08 03:24:06;;;;;;;428.30;178.03;;;;;;;4.95;nan;97309.47;5012084;28;20042;-62
2023/03/08 03:26:40;;;;;;;427.63;175.50;;;;;;;4.78;nan;97319.09;5012071;28;20663;-65
2023/03/08 03:29:06;;;;;;;425.03;175.40;;;;;;;4.95;nan;97309.47;5020427;28;20394;-64
2023/03/08 03:31:35;;;;;;;427.93;182.30;;;;;;;5.19;nan;97309.03;4998084;28;20318;-65
2023/03/08 03:34:00;;;;;;;427.77;174.73;;;;;;;5.34;nan;97324.00;5025920;28;20300;-65
2023/03/08 03:36:27;;;;;;;426.27;180.10;;;;;;;5.34;nan;97318.06;5018374;28;20037;-65
2023/03/08 03:38:54;;;;;;;427.23;176.47;;;;;;;5.03;nan;97322.88;5008034;28;20301;-65
2023/03/08 03:41:22;;;;;;;426.33;175.33;;;;;;;5.04;nan;97305.09;5018098;28;20300;-64
2023/03/08 03:43:54;;;;;;;426.00;173.00;;;;;;;5.39;nan;97328.94;5008908;28;20296;-63
2023/03/08 03:46:21;;;;;;;423.70;169.57;;;;;;;5.50;nan;97324.53;5011577;28;20284;-65
2023/03/08 03:48:50;;;;;;;423.53;167.57;;;;;;;5.41;nan;97333.16;5009447;28;20022;-66
2023/03/08 03:51:20;;;;;;;424.50;173.33;;;;;;;5.43;nan;97335.69;5014030;28;20300;-65
2023/03/08 03:53:51;;;;;;;424.23;166.60;;;;;;;5.26;nan;97318.19;5026346;28;20785;-66
2023/03/08 03:56:22;;;;;;;427.27;176.83;;;;;;;5.33;nan;97342.63;5010856;28;20315;-66
2023/03/08 03:58:50;;;;;;;425.80;173.23;;;;;;;5.23;nan;97342.81;5007649;28;20334;-68
2023/03/08 04:01:29;;;;;;;425.10;169.80;;;;;;;4.96;nan;97326.41;5012552;28;20362;-65
2023/03/08 04:04:03;;;;;;;424.27;169.90;;;;;;;4.92;nan;97365.41;5010357;28;20373;-66
2023/03/08 04:06:33;;;;;;;423.27;167.90;;;;;;;5.12;nan;97352.34;5020327;28;20584;-65
2023/03/08 04:09:05;;;;;;;424.50;173.43;;;;;;;5.20;nan;97364.06;5017788;28;20315;-65
2023/03/08 04:11:37;;;;;;;426.00;174.90;;;;;;;5.33;nan;97357.03;5009907;28;20414;-65
2023/03/08 04:14:05;;;;;;;426.27;172.87;;;;;;;5.26;nan;97345.34;5011953;28;20296;-65
2023/03/08 04:16:34;;;;;;;428.13;175.83;;;;;;;5.32;nan;97352.81;5020201;28;20301;-66
2023/03/08 04:19:09;;;;;;;427.57;173.40;;;;;;;5.19;nan;97336.13;4996760;28;20295;-65
2023/03/08 04:21:35;;;;;;;428.20;173.73;;;;;;;5.40;nan;97345.88;5024795;28;20315;-65
2023/03/08 04:24:02;;;;;;;429.37;167.40;;;;;;;5.39;nan;97347.59;5011947;28;20299;-66
2023/03/08 04:26:29;;;;;;;426.77;168.47;;;;;;;5.26;nan;97343.59;5009763;28;20297;-65
2023/03/08 04:28:55;;;;;;;427.00;174.17;;;;;;;5.31;nan;97357.06;5018647;28;20778;-66
2023/03/08 04:31:26;;;;;;;423.77;167.53;;;;;;;5.24;nan;97337.72;5010522;28;20692;-66
2023/03/08 04:33:54;;;;;;;429.67;171.47;;;;;;;5.26;nan;97363.94;5025330;28;20307;-66
2023/03/08 04:36:21;;;;;;;426.10;166.93;;;;;;;5.21;nan;97353.03;5012169;28;20397;-65
2023/03/08 04:38:48;;;;;;;427.67;175.67;;;;;;;5.26;nan;97346.13;5011375;28;20393;-65
2023/03/08 04:41:15;;;;;;;427.10;171.40;;;;;;;5.21;nan;97357.28;5010584;28;20438;-65
2023/03/08 04:43:54;;;;;;;429.07;169.00;;;;;;;5.19;nan;97348.81;5010485;28;20854;-65
2023/03/08 04:46:28;;;;;;;427.30;167.20;;;;;;;5.14;nan;97335.38;5011055;28;20289;-65
2023/03/08 04:48:55;;;;;;;429.90;172.80;;;;;;;5.17;nan;97356.50;5010358;28;20696;-66
2023/03/08 04:51:26;;;;;;;431.77;170.83;;;;;;;5.09;nan;97360.03;5012685;28;20304;-66
2023/03/08 04:53:54;;;;;;;425.07;165.40;;;;;;;4.80;nan;97314.81;5013929;28;20351;-67
2023/03/08 04:56:19;;;;;;;426.90;168.57;;;;;;;5.07;nan;97360.91;5011833;28;20288;-64
2023/03/08 04:58:47;;;;;;;429.77;171.13;;;;;;;5.02;nan;97366.91;5008023;28;20069;-66
2023/03/08 05:01:19;;;;;;;421.53;164.70;;;;;;;5.03;nan;97368.59;5010221;28;20358;-66
2023/03/08 05:03:48;;;;;;;424.67;163.90;;;;;;;4.93;nan;97378.06;4994423;28;20309;-64
2023/03/08 05:06:16;;;;;;;425.60;166.47;;;;;;;4.96;nan;97365.34;5027480;28;20387;-65
2023/03/08 05:08:42;;;;;;;426.77;165.43;;;;;;;4.93;nan;97362.81;5011082;28;20679;-64
2023/03/08 05:11:09;;;;;;;424.33;169.07;;;;;;;4.91;nan;97356.94;5010680;28;20324;-67
2023/03/08 05:13:37;;;;;;;421.93;162.83;;;;;;;4.89;nan;97375.59;5010962;28;20327;-66
2023/03/08 05:16:06;;;;;;;420.80;160.37;;;;;;;4.77;nan;97342.81;4996006;28;20288;-65
2023/03/08 05:18:32;;;;;;;422.03;164.70;;;;;;;4.89;nan;97360.38;5007358;28;20287;-65
2023/03/08 05:21:01;;;;;;;425.73;164.93;;;;;;;5.00;nan;97366.13;5009738;28;20334;-65
2023/03/08 05:23:28;;;;;;;421.47;161.33;;;;;;;5.06;nan;97355.84;5010658;28;20296;-64
2023/03/08 05:25:58;;;;;;;423.67;165.70;;;;;;;5.11;nan;97359.13;5008141;28;20366;-66
2023/03/08 05:28:25;;;;;;;423.17;165.33;;;;;;;5.11;nan;97364.22;5010968;28;20632;-67
2023/03/08 05:31:24;;;;;;;423.83;163.20;;;;;;;5.12;nan;97360.81;5008313;28;20814;-67
2023/03/08 05:33:52;;;;;;;421.40;163.73;;;;;;;5.09;nan;97360.88;4991513;28;20740;-66
2023/03/08 05:36:26;;;;;;;316.15;122.45;;;;;;;4.95;nan;97330.66;4992467;28;20308;-66
2023/03/08 05:38:55;;;;;;;422.77;165.23;;;;;;;4.95;nan;97339.97;5008096;28;20093;-66
2023/03/08 05:41:26;;;;;;;422.33;163.73;;;;;;;4.93;nan;97356.91;4995478;28;20327;-64
2023/03/08 05:43:53;;;;;;;422.33;165.60;;;;;;;4.88;nan;97348.56;5008400;28;20373;-65
2023/03/08 05:46:20;;;;;;;425.57;167.33;;;;;;;4.80;nan;97357.97;4992385;28;20862;-64
2023/03/08 05:48:47;;;;;;;422.20;164.57;;;;;;;4.63;nan;97344.72;4988683;28;20381;-65
2023/03/08 05:51:17;;;;;;;425.57;161.80;;;;;;;4.72;nan;97370.81;5007293;28;20354;-67
2023/03/08 05:53:44;;;;;;;419.17;158.73;;;;;;;4.51;nan;97358.44;4998809;28;20296;-66
2023/03/08 05:56:13;;;;;;;424.83;163.70;;;;;;;4.53;nan;97365.19;5009140;28;20304;-65
2023/03/08 05:58:44;;;;;;;421.97;167.37;;;;;;;4.52;nan;97360.13;4997129;28;20777;-65
2023/03/08 06:01:15;;;;;;;420.80;161.40;;;;;;;4.55;nan;97378.69;4998965;28;20650;-67
2023/03/08 06:03:44;;;;;;;422.00;161.43;;;;;;;4.51;nan;97387.22;5007372;28;20317;-66
2023/03/08 06:06:10;;;;;;;422.67;160.20;;;;;;;4.53;nan;97394.81;4992283;28;20868;-61
2023/03/08 06:08:35;;;;;;;424.40;163.20;;;;;;;4.38;nan;97380.63;4993986;28;20293;-64
2023/03/08 06:11:02;;;;;;;419.97;161.53;;;;;;;4.53;nan;97398.19;4996350;28;20064;-61
2023/03/08 06:13:28;;;;;;;423.80;170.13;;;;;;;4.54;nan;97391.41;4989274;28;20764;-55
2023/03/08 06:15:55;;;;;;;423.17;172.40;;;;;;;4.58;nan;97396.41;5004966;28;20320;-62
2023/03/08 06:18:22;;;;;;;422.77;166.03;;;;;;;4.39;nan;97368.78;5007801;28;20045;-63
2023/03/08 06:21:05;;;;;;;422.87;167.27;;;;;;;4.72;nan;97410.56;5005347;28;20667;-61
2023/03/08 06:23:34;;;;;;;424.45;163.40;;;;;;;4.77;nan;97412.19;5007352;28;20740;-62
2023/03/08 06:26:02;;;;;;;423.27;170.63;;;;;;;4.87;nan;97421.34;5013668;28;20148;-63
2023/03/08 06:28:29;;;;;;;426.00;174.47;;;;;;;4.97;nan;97415.25;5022304;28;20315;-61
2023/03/08 06:30:56;;;;;;;423.40;168.23;;;;;;;5.03;nan;97399.91;5008468;28;20320;-63
2023/03/08 06:33:27;;;;;;;421.60;164.97;;;;;;;5.22;nan;97428.38;5008897;28;20792;-62
2023/03/08 06:36:08;;;;;;;424.47;171.43;;;;;;;5.21;nan;97429.25;5013515;28;20296;-62
2023/03/08 06:38:36;;;;;;;425.80;172.47;;;;;;;5.17;nan;97409.84;5006226;28;20301;-63
2023/03/08 06:41:02;;;;;;;426.50;175.60;;;;;;;5.41;nan;97427.19;5017226;28;20292;-64
2023/03/08 06:43:28;;;;;;;424.20;174.90;;;;;;;5.40;nan;97409.41;5022454;28;20618;-63
2023/03/08 06:45:55;;;;;;;426.70;176.67;;;;;;;5.70;nan;97439.34;5009378;28;20833;-63
2023/03/08 06:48:21;;;;;;;429.37;180.80;;;;;;;5.63;nan;97407.28;5010064;28;20422;-63
2023/03/08 06:50:49;;;;;;;428.73;178.67;;;;;;;5.91;nan;97430.50;5007109;28;20387;-65
2023/03/08 06:53:15;;;;;;;431.10;183.40;;;;;;;5.84;nan;97439.94;5010676;28;20281;-65
2023/03/08 06:56:01;;;;;;;427.57;182.13;;;;;;;5.96;nan;97428.72;5008656;28;20402;-64
2023/03/08 06:58:29;;;;;;;431.60;192.13;;;;;;;5.93;nan;97434.72;5008088;28;20383;-63
2023/03/08 07:00:55;;;;;;;429.00;183.97;;;;;;;5.85;nan;97425.53;5009543;28;20323;-65
2023/03/08 07:03:21;;;;;;;429.77;190.37;;;;;;;5.96;nan;97441.44;5010124;28;20293;-65
2023/03/08 07:05:47;;;;;;;430.37;191.47;;;;;;;6.06;nan;97447.19;5012851;28;20497;-65
2023/03/08 07:08:12;;;;;;;434.10;198.03;;;;;;;6.15;nan;97447.84;5010394;28;20296;-66
2023/03/08 07:10:38;;;;;;;435.53;203.23;;;;;;;6.24;nan;97434.06;5013653;28;20121;-66
2023/03/08 07:13:03;;;;;;;436.10;198.57;;;;;;;6.48;nan;97440.34;5012371;28;20038;-65
2023/03/08 07:15:29;;;;;;;435.23;206.40;;;;;;;6.63;nan;97437.44;5005705;28;20614;-66
2023/03/08 07:17:56;;;;;;;440.00;210.10;;;;;;;6.78;nan;97447.31;5007331;28;20481;-65
2023/03/08 07:20:23;;;;;;;435.87;207.33;;;;;;;6.93;nan;97439.28;5011980;28;20034;-66
2023/03/08 07:22:49;;;;;;;439.23;215.23;;;;;;;7.10;nan;97437.19;5010749;28;20260;-64
2023/03/08 07:25:17;;;;;;;440.83;221.00;;;;;;;7.12;nan;97438.00;5007859;28;20308;-64
2023/03/08 07:27:43;;;;;;;439.67;224.37;;;;;;;7.20;nan;97431.00;5007658;28;20641;-64
2023/03/08 07:30:11;;;;;;;437.70;218.57;;;;;;;7.34;nan;97431.44;5012707;28;20332;-66
2023/03/08 07:32:38;;;;;;;443.83;226.10;;;;;;;7.37;nan;97420.38;5013490;28;20041;-65
2023/03/08 07:35:05;;;;;;;444.50;236.93;;;;;;;7.50;nan;97431.06;5011945;28;20657;-66
2023/03/08 07:37:31;;;;;;;442.40;235.40;;;;;;;7.50;nan;97429.38;5012562;28;20681;-66
2023/03/08 07:39:56;;;;;;;443.43;239.43;;;;;;;7.59;nan;97430.84;5022436;28;20846;-64
2023/03/08 07:42:22;;;;;;;442.67;234.00;;;;;;;7.77;nan;97425.22;5014485;28;20049;-65
2023/03/08 07:44:53;;;;;;;445.53;242.77;;;;;;;7.82;nan;97415.75;4996177;28;20113;-65
2023/03/08 07:47:20;;;;;;;444.33;246.93;;;;;;;7.98;nan;97416.97;5010964;28;20390;-64
2023/03/08 07:49:45;;;;;;;449.43;255.07;;;;;;;7.89;nan;97399.41;5011358;28;20189;-65
2023/03/08 07:52:11;;;;;;;444.87;246.63;;;;;;;8.09;nan;97420.09;5010351;28;20805;-64
2023/03/08 07:54:36;;;;;;;447.47;258.43;;;;;;;8.20;nan;97418.03;5008241;28;20034;-62
2023/03/08 07:57:03;;;;;;;450.83;260.80;;;;;;;8.46;nan;97419.03;5007648;28;20729;-66
2023/03/08 07:59:29;;;;;;;449.53;259.63;;;;;;;8.61;nan;97426.25;5009874;28;20057;-65
2023/03/08 08:01:54;;;;;;;451.03;274.23;;;;;;;8.70;nan;97420.81;5011387;28;20300;-64
2023/03/08 08:04:21;;;;;;;449.57;272.43;;;;;;;8.80;nan;97401.78;5006775;28;20432;-60
2023/03/08 08:06:48;;;;;;;450.70;272.40;;;;;;;8.90;nan;97392.94;5007795;28;20127;-63
2023/03/08 08:09:14;;;;;;;453.23;275.47;;;;;;;9.12;nan;97409.22;5005623;28;20303;-72
2023/03/08 08:11:40;;;;;;;454.40;291.90;;;;;;;9.04;nan;97403.53;5006720;28;20303;-64
2023/03/08 08:14:06;;;;;;;452.60;286.37;;;;;;;8.83;nan;97400.84;5005490;28;20046;-61
2023/03/08 08:16:32;;;;;;;454.83;286.97;;;;;;;8.94;nan;97386.84;5007041;28;20814;-61
2023/03/08 08:18:58;;;;;;;454.40;287.87;;;;;;;9.04;nan;97385.63;5010519;28;20846;-63
2023/03/08 08:21:24;;;;;;;452.93;295.17;;;;;;;9.10;nan;97370.13;5010822;28;20314;-63
2023/03/08 08:23:50;;;;;;;454.40;291.27;;;;;;;9.27;nan;97376.38;5007467;28;20049;-62
2023/03/08 08:26:21;;;;;;;458.07;296.33;;;;;;;9.40;nan;97391.25;5007168;28;20311;-63
2023/03/08 08:28:51;;;;;;;454.83;295.67;;;;;;;9.39;nan;97361.44;5010053;28;20468;-63
2023/03/08 08:31:20;;;;;;;456.47;300.97;;;;;;;9.55;nan;97371.97;5010710;28;20566;-63
2023/03/08 08:33:46;;;;;;;458.37;306.90;;;;;;;9.62;nan;97364.06;5009215;28;20397;-63
2023/03/08 08:36:15;;;;;;;455.73;301.87;;;;;;;9.74;nan;97361.94;5010594;28;20390;-62
2023/03/08 08:38:42;;;;;;;458.60;306.67;;;;;;;9.91;nan;97365.56;5009195;28;20548;-62
2023/03/08 08:41:09;;;;;;;460.30;314.73;;;;;;;9.92;nan;97362.09;5006351;28;20300;-62
2023/03/08 08:43:35;;;;;;;461.47;318.07;;;;;;;9.67;nan;97363.06;5006134;28;20300;-62
2023/03/08 08:46:02;;;;;;;457.83;316.77;;;;;;;9.51;nan;97366.13;5010321;28;20276;-62
2023/03/08 08:48:28;;;;;;;456.53;316.07;;;;;;;9.72;nan;97356.84;5010135;28;20761;-61
2023/03/08 08:50:54;;;;;;;458.23;313.23;;;;;;;9.89;nan;97351.97;5010127;28;20288;-61
2023/03/08 08:53:20;;;;;;;461.00;321.40;;;;;;;9.46;nan;97347.53;5008645;28;20300;-61
2023/03/08 08:55:47;;;;;;;462.20;319.83;;;;;;;9.61;nan;97357.25;5008769;28;20444;-62
2023/03/08 08:58:13;;;;;;;460.00;313.63;;;;;;;9.61;nan;97364.94;5009546;28;20292;-61
2023/03/08 09:00:39;;;;;;;458.47;311.67;;;;;;;9.59;nan;97381.19;5008930;28;20064;-61
2023/03/08 09:03:06;;;;;;;458.87;311.80;;;;;;;9.77;nan;97379.72;5005917;28;20296;-62
2023/03/08 09:05:33;;;;;;;456.97;307.87;;;;;;;9.84;nan;97394.00;5005770;28;20318;-62
2023/03/08 09:08:00;;;;;;;455.43;308.43;;;;;;;9.86;nan;97410.13;5008527;28;20560;-61
2023/03/08 09:10:28;;;;;;;458.47;311.83;;;;;;;9.96;nan;97412.31;5011290;28;20523;-62
2023/03/08 09:12:54;;;;;;;456.33;311.83;;;;;;;9.80;nan;97421.41;5008476;28;20291;-62
2023/03/08 09:15:21;;;;;;;458.97;313.97;;;;;;;10.06;nan;97416.19;5010564;28;20292;-62
2023/03/08 09:17:48;;;;;;;458.00;317.40;;;;;;;10.15;nan;97403.94;5011351;28;20296;-62
2023/03/08 09:20:14;;;;;;;459.30;315.40;;;;;;;10.31;nan;97399.97;5009279;28;20300;-63
2023/03/08 09:22:40;;;;;;;462.13;325.30;;;;;;;10.19;nan;97390.16;5010190;28;20320;-61
2023/03/08 09:25:07;;;;;;;459.33;322.23;;;;;;;10.17;nan;97358.66;5012299;28;20281;-60
2023/03/08 09:27:33;;;;;;;459.83;323.13;;;;;;;10.72;nan;97388.94;5014158;28;20854;-61
2023/03/08 09:29:59;;;;;;;460.63;328.83;;;;;;;10.97;nan;97376.81;5013138;28;20295;-62
2023/03/08 09:32:25;;;;;;;463.43;338.27;;;;;;;11.11;nan;97355.75;5010846;28;20291;-61
2023/03/08 09:34:52;;;;;;;468.60;347.97;;;;;;;11.13;nan;97363.34;5010491;28;20084;-62
2023/03/08 09:37:19;;;;;;;465.27;349.67;;;;;;;10.88;nan;97371.22;5013660;28;20784;-61
2023/03/08 09:39:45;;;;;;;468.33;358.47;;;;;;;11.02;nan;97368.09;5011699;28;20299;-63
2023/03/08 09:42:22;;;;;;;469.87;360.23;;;;;;;10.96;nan;97369.16;5014008;28;20296;-63
2023/03/08 09:44:59;;;;;;;469.93;365.97;;;;;;;11.12;nan;97348.88;5010784;28;20364;-61
2023/03/08 09:47:40;;;;;;;473.73;370.40;;;;;;;11.43;nan;97349.22;5011184;28;20049;-63
2023/03/08 09:50:11;;;;;;;471.90;369.67;;;;;;;11.57;nan;97351.22;5005008;28;20049;-61
2023/03/08 09:52:53;;;;;;;470.93;374.00;;;;;;;11.45;nan;97353.41;5005208;28;20852;-61
2023/03/08 09:55:29;;;;;;;474.27;379.67;;;;;;;11.53;nan;97354.81;5004290;28;20042;-64
2023/03/08 09:58:23;;;;;;;473.20;378.30;;;;;;;11.67;nan;97342.22;5003294;28;20050;-60
2023/03/08 10:00:49;;;;;;;476.50;386.70;;;;;;;11.87;nan;97334.50;5005711;28;20060;-62
2023/03/08 10:03:34;;;;;;;478.87;370.70;;;;;;;11.34;nan;97329.09;5008954;28;20489;-60
2023/03/08 10:06:19;;;;;;;473.20;366.75;;;;;;;11.17;nan;97326.41;5008621;28;20057;-60
2023/03/08 10:08:51;;;;;;;471.88;369.63;;;;;;;10.89;nan;97334.44;5009018;28;20042;-61
2023/03/08 10:11:47;;;;;;;475.13;367.03;;;;;;;10.97;nan;97328.09;5007608;28;20050;-60
2023/03/08 10:14:26;;;;;;;470.27;365.93;;;;;;;11.01;nan;97300.59;4998195;28;20052;-61
2023/03/08 10:16:56;;;;;;;472.37;369.57;;;;;;;11.02;nan;97314.25;4996365;28;20069;-60
2023/03/08 10:19:38;;;;;;;469.37;367.43;;;;;;;10.68;nan;97300.25;4978601;28;20153;-60
2023/03/08 10:22:13;;;;;;;473.03;365.40;;;;;;;10.92;nan;97301.81;4999419;28;20292;-62
2023/03/08 10:24:49;;;;;;;469.87;362.70;;;;;;;10.75;nan;97308.50;4979576;28;20091;-60
2023/03/08 10:27:23;;;;;;;466.60;351.50;;;;;;;10.45;nan;97298.59;4995223;28;20376;-60
2023/03/08 10:29:56;;;;;;;466.03;350.03;;;;;;;10.35;nan;97284.50;4995110;28;20653;-62
2023/03/08 10:32:24;;;;;;;463.20;333.47;;;;;;;10.14;nan;97281.94;4995679;28;20834;-61
2023/03/08 10:34:51;;;;;;;466.40;329.50;;;;;;;10.12;nan;97291.38;4998878;28;20297;-60
2023/03/08 10:37:23;;;;;;;462.70;326.00;;;;;;;10.18;nan;97288.63;4999382;28;20307;-61
2023/03/08 10:39:54;;;;;;;461.03;319.80;;;;;;;10.04;nan;97269.47;4999078;28;20288;-60
2023/03/08 10:42:27;;;;;;;461.30;313.17;;;;;;;10.09;nan;97282.94;4998330;28;20296;-61
2023/03/08 10:44:59;;;;;;;461.30;316.53;;;;;;;9.94;nan;97265.59;4997879;28;20728;-60
2023/03/08 10:47:33;;;;;;;465.47;324.27;;;;;;;10.25;nan;97272.94;4997495;28;20395;-61
2023/03/08 10:50:08;;;;;;;462.30;315.70;;;;;;;9.95;nan;97269.81;4995424;28;20331;-62
2023/03/08 10:52:34;;;;;;;463.23;315.55;;;;;;;9.95;nan;97253.63;5006172;28;20592;-60
2023/03/08 10:55:01;;;;;;;460.73;318.87;;;;;;;10.12;nan;97256.38;5008849;28;20046;-61
2023/03/08 10:57:27;;;;;;;464.03;322.37;;;;;;;10.25;nan;97251.63;5008340;28;20272;-62
2023/03/08 10:59:53;;;;;;;459.80;316.23;;;;;;;10.13;nan;97217.06;5006552;28;20296;-63
2023/03/08 11:02:21;;;;;;;462.63;313.57;;;;;;;10.27;nan;97231.91;5020812;28;20292;-61
2023/03/08 11:04:58;;;;;;;465.83;327.20;;;;;;;10.31;nan;97229.16;5004813;28;20288;-60
2023/03/08 11:07:30;;;;;;;464.77;322.03;;;;;;;10.33;nan;97213.72;5015997;28;20292;-62
2023/03/08 11:10:24;;;;;;;464.43;319.87;;;;;;;10.25;nan;97200.41;5006450;28;20284;-62
2023/03/08 11:13:00;;;;;;;463.47;320.50;;;;;;;10.44;nan;97194.44;5006033;28;20301;-62
2023/03/08 11:15:29;;;;;;;466.37;324.50;;;;;;;10.45;nan;97185.88;5006492;28;20297;-62
2023/03/08 11:18:11;;;;;;;463.23;329.13;;;;;;;10.30;nan;97170.31;5005707;28;20341;-62
2023/03/08 11:20:54;;;;;;;463.33;325.47;;;;;;;10.26;nan;97155.97;5007751;28;20304;-62
2023/03/08 11:23:54;;;;;;;461.70;323.83;;;;;;;10.37;nan;97128.16;5007652;28;20342;-61
2023/03/08 11:26:26;;;;;;;467.43;332.10;;;;;;;10.52;nan;97133.47;5004298;28;20307;-61
2023/03/08 11:29:17;;;;;;;471.23;331.17;;;;;;;10.67;nan;97102.97;5004512;28;20288;-61
2023/03/08 11:31:48;;;;;;;467.73;332.00;;;;;;;10.78;nan;97091.31;5007717;28;20275;-61
2023/03/08 11:34:17;;;;;;;468.77;345.93;;;;;;;10.57;nan;97081.19;5006128;28;20292;-61